Time;durP1;ratioP1;P1;durP2;ratioP2;P2;SDS_P1;SDS_P2;PMS_P1;PMS_P2;Temp;Humidity;BMP_temperature;BMP_pressure;BME280_temperature;BME280_humidity;BME280_pressure;Samples;Min_cycle;Max_cycle;Signal;HPM_P1;HPM_P2
2021/05/10 00:01:39;;;;;;;1.10;1.10;;;;;;;;;;5022893;28;20042;-46
2021/05/10 00:04:07;;;;;;;1.35;1.35;;;;;;;;;;5017893;28;20057;-44
2021/05/10 00:06:34;;;;;;;2.35;1.30;;;;;;;;;;5027811;28;20474;-45
2021/05/10 00:09:02;;;;;;;2.35;1.20;;;;;;;;;;5025662;28;20054;-46
2021/05/10 00:11:34;;;;;;;0.93;0.93;;;;;;;;;;5012605;28;20037;-45
2021/05/10 00:14:04;;;;;;;2.08;1.00;;;;;;;;;;5027454;28;20517;-44
2021/05/10 00:16:32;;;;;;;1.20;1.10;;;;;;;;;;5025498;28;20113;-47
2021/05/10 00:19:00;;;;;;;1.20;1.20;;;;;;;;;;5028643;28;20100;-44
2021/05/10 00:21:27;;;;;;;2.00;1.10;;;;;;;;;;5026548;28;20088;-45
2021/05/10 00:23:54;;;;;;;1.13;1.00;;;;;;;;;;5026597;28;20120;-49
2021/05/10 00:26:21;;;;;;;1.48;1.13;;;;;;;;;;5028415;28;20042;-47
2021/05/10 00:28:48;;;;;;;1.55;1.10;;;;;;;;;;5022138;28;20033;-45
2021/05/10 00:31:14;;;;;;;1.10;1.10;;;;;;;;;;5016146;28;20042;-45
2021/05/10 00:33:42;;;;;;;2.17;1.30;;;;;;;;;;5021745;28;20104;-46
2021/05/10 00:36:09;;;;;;;0.93;0.93;;;;;;;;;;5016031;28;20439;-45
2021/05/10 00:38:35;;;;;;;1.20;1.20;;;;;;;;;;5028780;28;20044;-45
2021/05/10 00:41:02;;;;;;;1.10;1.10;;;;;;;;;;5025584;28;20037;-45
2021/05/10 00:43:29;;;;;;;1.30;1.20;;;;;;;;;;5028462;28;20033;-46
2021/05/10 00:45:56;;;;;;;3.72;1.20;;;;;;;;;;5028069;28;20029;-44
2021/05/10 00:48:22;;;;;;;2.80;1.10;;;;;;;;;;5031357;28;20049;-46
2021/05/10 00:50:49;;;;;;;1.52;1.00;;;;;;;;;;5018471;28;20042;-46
2021/05/10 00:53:16;;;;;;;1.70;1.35;;;;;;;;;;5027336;28;20037;-47
2021/05/10 00:55:42;;;;;;;1.23;1.10;;;;;;;;;;5031380;28;20041;-49
2021/05/10 00:58:09;;;;;;;1.58;1.20;;;;;;;;;;5030628;28;20029;-45
2021/05/10 01:00:39;;;;;;;1.10;1.10;;;;;;;;;;5022493;28;20386;-45
2021/05/10 01:03:06;;;;;;;3.13;1.08;;;;;;;;;;5029223;28;20097;-48
2021/05/10 01:05:33;;;;;;;2.47;1.48;;;;;;;;;;5027623;28;20029;-44
2021/05/10 01:08:00;;;;;;;1.33;0.95;;;;;;;;;;5014684;28;20034;-44
2021/05/10 01:10:27;;;;;;;1.13;1.13;;;;;;;;;;5031488;28;20460;-44
2021/05/10 01:12:54;;;;;;;1.38;1.38;;;;;;;;;;5027048;28;20041;-44
2021/05/10 01:15:23;;;;;;;1.35;1.25;;;;;;;;;;5016248;28;20145;-44
2021/05/10 01:17:52;;;;;;;2.15;1.85;;;;;;;;;;5029250;28;20029;-45
2021/05/10 01:20:20;;;;;;;2.70;1.20;;;;;;;;;;5028920;28;20057;-49
2021/05/10 01:22:55;;;;;;;1.08;1.08;;;;;;;;;;5031693;28;20049;-45
2021/05/10 01:25:23;;;;;;;1.20;1.10;;;;;;;;;;5025446;28;20045;-46
2021/05/10 01:27:50;;;;;;;1.73;1.15;;;;;;;;;;5030748;28;20059;-44
2021/05/10 01:30:22;;;;;;;1.60;1.10;;;;;;;;;;5024771;28;20040;-44
2021/05/10 01:32:49;;;;;;;1.60;1.50;;;;;;;;;;5030469;28;20506;-46
2021/05/10 01:35:17;;;;;;;1.30;1.30;;;;;;;;;;5031980;28;20050;-46
2021/05/10 01:37:44;;;;;;;2.70;1.52;;;;;;;;;;5027657;28;20045;-43
2021/05/10 01:40:12;;;;;;;1.65;1.10;;;;;;;;;;5029568;28;20069;-45
2021/05/10 01:42:38;;;;;;;1.60;1.50;;;;;;;;;;5031213;28;20560;-43
2021/05/10 01:45:07;;;;;;;2.38;1.35;;;;;;;;;;5025157;28;20469;-45
2021/05/10 01:47:34;;;;;;;2.25;1.38;;;;;;;;;;5015239;28;20038;-45
2021/05/10 01:50:10;;;;;;;4.72;2.67;;;;;;;;;;5027739;28;20046;-49
2021/05/10 01:52:36;;;;;;;1.38;1.23;;;;;;;;;;5029341;28;20049;-48
2021/05/10 01:55:03;;;;;;;1.27;1.13;;;;;;;;;;5019659;28;20050;-45
2021/05/10 01:57:30;;;;;;;1.48;1.38;;;;;;;;;;5021817;28;20064;-47
2021/05/10 01:59:56;;;;;;;1.25;1.25;;;;;;;;;;5030365;28;20508;-44
2021/05/10 02:02:24;;;;;;;1.48;1.40;;;;;;;;;;5028675;28;20045;-44
2021/05/10 02:05:04;;;;;;;2.22;1.85;;;;;;;;;;5030406;28;20029;-45
2021/05/10 02:07:32;;;;;;;1.88;1.40;;;;;;;;;;5030565;28;20107;-43
2021/05/10 02:09:59;;;;;;;1.33;1.23;;;;;;;;;;5028616;28;20045;-44
2021/05/10 02:12:26;;;;;;;1.35;1.27;;;;;;;;;;5014325;28;20132;-45
2021/05/10 02:14:55;;;;;;;1.13;1.13;;;;;;;;;;5031130;28;20041;-45
2021/05/10 02:17:23;;;;;;;3.40;1.30;;;;;;;;;;5021777;28;20045;-46
2021/05/10 02:19:52;;;;;;;1.63;1.25;;;;;;;;;;5029724;28;20481;-46
2021/05/10 02:22:19;;;;;;;1.20;1.20;;;;;;;;;;5024564;28;20440;-45
2021/05/10 02:24:47;;;;;;;1.17;1.17;;;;;;;;;;5016848;28;20378;-44
2021/05/10 02:27:18;;;;;;;2.38;1.40;;;;;;;;;;5030084;28;20049;-46
2021/05/10 02:29:47;;;;;;;1.92;1.52;;;;;;;;;;5027511;28;20033;-47
2021/05/10 02:32:15;;;;;;;1.33;1.33;;;;;;;;;;5019108;28;20409;-48
2021/05/10 02:34:48;;;;;;;2.10;1.70;;;;;;;;;;5023965;28;20443;-49
2021/05/10 02:37:16;;;;;;;1.70;1.60;;;;;;;;;;5025602;28;20041;-46
2021/05/10 02:39:42;;;;;;;1.48;1.40;;;;;;;;;;5016996;28;20038;-44
2021/05/10 02:42:09;;;;;;;1.20;1.20;;;;;;;;;;5029127;28;20451;-45
2021/05/10 02:44:36;;;;;;;2.58;1.40;;;;;;;;;;5024549;28;20124;-45
2021/05/10 02:47:02;;;;;;;1.42;1.40;;;;;;;;;;5024505;28;20041;-45
2021/05/10 02:49:29;;;;;;;1.63;1.48;;;;;;;;;;5028975;28;20046;-44
2021/05/10 02:51:55;;;;;;;2.75;1.50;;;;;;;;;;5013647;28;20503;-45
2021/05/10 02:54:21;;;;;;;1.50;1.40;;;;;;;;;;5023571;28;20042;-45
2021/05/10 02:56:48;;;;;;;2.17;2.00;;;;;;;;;;5028876;28;20037;-49
2021/05/10 02:59:14;;;;;;;2.42;1.40;;;;;;;;;;5030078;28;20045;-47
2021/05/10 03:01:41;;;;;;;1.40;1.40;;;;;;;;;;5028724;28;20034;-45
2021/05/10 03:04:07;;;;;;;1.60;1.50;;;;;;;;;;5025918;28;20087;-46
2021/05/10 03:06:34;;;;;;;1.42;1.33;;;;;;;;;;5025210;28;20072;-46
2021/05/10 03:09:00;;;;;;;1.60;1.60;;;;;;;;;;5013659;28;20037;-44
2021/05/10 03:11:27;;;;;;;3.20;2.83;;;;;;;;;;5029051;28;20048;-47
2021/05/10 03:13:53;;;;;;;1.70;1.60;;;;;;;;;;5026720;28;20502;-48
2021/05/10 03:16:19;;;;;;;2.30;2.20;;;;;;;;;;5020977;28;20048;-49
2021/05/10 03:18:46;;;;;;;2.78;1.40;;;;;;;;;;5027369;28;20505;-47
2021/05/10 03:21:12;;;;;;;3.17;1.73;;;;;;;;;;5027843;28;20715;-45
2021/05/10 03:23:40;;;;;;;1.60;1.30;;;;;;;;;;5027440;28;20041;-48
2021/05/10 03:26:07;;;;;;;1.80;1.70;;;;;;;;;;5027348;28;20041;-48
2021/05/10 03:28:36;;;;;;;1.92;1.83;;;;;;;;;;5030251;28;20038;-44
2021/05/10 03:31:02;;;;;;;1.23;1.23;;;;;;;;;;5022678;28;20041;-45
2021/05/10 03:33:29;;;;;;;1.35;1.30;;;;;;;;;;5015870;28;20154;-44
2021/05/10 03:35:55;;;;;;;1.92;1.73;;;;;;;;;;5028970;28;20619;-50
2021/05/10 03:38:22;;;;;;;1.60;1.50;;;;;;;;;;5027864;28;20046;-46
2021/05/10 03:40:48;;;;;;;1.50;1.50;;;;;;;;;;5028155;28;20041;-45
2021/05/10 03:43:15;;;;;;;2.30;2.10;;;;;;;;;;5027523;28;20033;-46
2021/05/10 03:45:41;;;;;;;1.55;1.50;;;;;;;;;;5028093;28;20767;-46
2021/05/10 03:48:08;;;;;;;1.92;1.90;;;;;;;;;;5016256;28;20069;-48
2021/05/10 03:50:34;;;;;;;1.55;1.55;;;;;;;;;;5023647;28;20099;-45
2021/05/10 03:53:00;;;;;;;1.90;1.90;;;;;;;;;;5029990;28;20112;-45
2021/05/10 03:55:27;;;;;;;1.88;1.88;;;;;;;;;;5022514;28;20447;-45
2021/05/10 03:57:55;;;;;;;3.67;1.77;;;;;;;;;;5022813;28;20072;-45
2021/05/10 04:00:21;;;;;;;2.50;1.60;;;;;;;;;;5016307;28;20088;-44
2021/05/10 04:02:48;;;;;;;1.70;1.70;;;;;;;;;;5023818;28;20033;-45
2021/05/10 04:15:49;;;;;;;6.28;2.50;;;;;;;;;;5028305;28;20041;-48
2021/05/10 04:18:16;;;;;;;2.45;2.35;;;;;;;;;;5027799;28;20045;-47
2021/05/10 04:20:44;;;;;;;2.15;2.05;;;;;;;;;;5020031;28;20046;-44
2021/05/10 04:23:11;;;;;;;1.90;1.90;;;;;;;;;;5029111;28;20029;-48
2021/05/10 04:25:37;;;;;;;1.77;1.77;;;;;;;;;;5031335;28;20522;-44
2021/05/10 04:28:05;;;;;;;1.75;1.65;;;;;;;;;;5023680;28;20060;-46
2021/05/10 04:30:34;;;;;;;2.22;2.13;;;;;;;;;;5022162;28;20051;-48
2021/05/10 04:33:01;;;;;;;3.10;1.67;;;;;;;;;;5026929;28;20123;-48
2021/05/10 04:35:28;;;;;;;2.95;2.25;;;;;;;;;;5026975;28;20046;-44
2021/05/10 04:37:56;;;;;;;3.30;2.28;;;;;;;;;;5031456;28;20056;-47
2021/05/10 04:40:22;;;;;;;2.33;2.30;;;;;;;;;;5028616;28;20037;-44
2021/05/10 04:42:49;;;;;;;1.73;1.73;;;;;;;;;;5029176;28;20118;-47
2021/05/10 04:45:15;;;;;;;2.80;2.30;;;;;;;;;;5026640;28;20037;-48
2021/05/10 04:47:42;;;;;;;2.58;2.15;;;;;;;;;;5029937;28;20551;-45
2021/05/10 04:50:10;;;;;;;2.05;1.95;;;;;;;;;;5023521;28;20038;-45
2021/05/10 04:52:37;;;;;;;2.00;2.00;;;;;;;;;;5030655;28;20051;-44
2021/05/10 04:55:05;;;;;;;7.72;3.00;;;;;;;;;;5029564;28;20116;-44
2021/05/10 04:57:32;;;;;;;4.60;2.40;;;;;;;;;;5031068;28;20497;-47
2021/05/10 04:59:59;;;;;;;3.47;2.35;;;;;;;;;;5029051;28;20044;-47
2021/05/10 05:02:27;;;;;;;3.45;2.55;;;;;;;;;;5022680;28;20382;-45
2021/05/10 05:04:54;;;;;;;2.42;2.33;;;;;;;;;;5022362;28;20045;-47
2021/05/10 05:07:21;;;;;;;3.40;1.60;;;;;;;;;;5022989;28;20037;-48
2021/05/10 05:09:48;;;;;;;3.13;2.15;;;;;;;;;;5030530;28;20083;-45
2021/05/10 05:12:15;;;;;;;2.47;2.28;;;;;;;;;;5030029;28;20120;-44
2021/05/10 05:14:41;;;;;;;2.53;2.35;;;;;;;;;;5025117;28;20517;-44
2021/05/10 05:17:08;;;;;;;2.75;2.70;;;;;;;;;;5030315;28;20040;-44
2021/05/10 05:19:34;;;;;;;2.72;2.63;;;;;;;;;;5026985;28;20029;-45
2021/05/10 05:22:01;;;;;;;3.00;2.80;;;;;;;;;;5021752;28;20088;-47
2021/05/10 05:24:28;;;;;;;2.30;2.05;;;;;;;;;;5029243;28;20038;-48
2021/05/10 05:26:55;;;;;;;2.17;2.15;;;;;;;;;;5028830;28;20033;-48
2021/05/10 05:29:22;;;;;;;2.10;1.88;;;;;;;;;;5030711;28;20068;-44
2021/05/10 05:31:49;;;;;;;2.53;1.92;;;;;;;;;;5036565;28;20029;-46
2021/05/10 05:34:17;;;;;;;2.08;1.65;;;;;;;;;;5020804;28;20586;-46
2021/05/10 05:36:44;;;;;;;1.85;1.77;;;;;;;;;;5021830;28;20033;-45
2021/05/10 05:39:10;;;;;;;1.45;1.45;;;;;;;;;;5029860;28;20045;-49
2021/05/10 05:41:36;;;;;;;7.72;2.47;;;;;;;;;;5026883;28;20072;-44
2021/05/10 05:44:04;;;;;;;1.73;1.70;;;;;;;;;;5029481;28;20438;-45
2021/05/10 05:46:33;;;;;;;2.45;2.25;;;;;;;;;;5031397;28;20136;-46
2021/05/10 05:49:00;;;;;;;2.28;1.90;;;;;;;;;;5019752;28;20057;-49
2021/05/10 05:51:27;;;;;;;1.85;1.70;;;;;;;;;;5030830;28;20041;-48
2021/05/10 05:53:54;;;;;;;1.45;1.45;;;;;;;;;;5026862;28;20069;-47
2021/05/10 05:56:21;;;;;;;1.33;1.30;;;;;;;;;;5038078;28;20049;-46
2021/05/10 05:58:51;;;;;;;1.38;1.30;;;;;;;;;;5029687;28;20053;-49
2021/05/10 06:01:18;;;;;;;5.57;1.50;;;;;;;;;;5029077;28;20088;-45
2021/05/10 06:03:44;;;;;;;4.38;2.03;;;;;;;;;;5029210;28;20099;-48
2021/05/10 06:06:11;;;;;;;1.60;1.50;;;;;;;;;;5029130;28;20292;-49
2021/05/10 06:08:37;;;;;;;2.83;1.83;;;;;;;;;;5024578;28;20046;-45
2021/05/10 06:11:06;;;;;;;1.48;1.40;;;;;;;;;;5027821;28;20644;-45
2021/05/10 06:13:33;;;;;;;2.60;1.48;;;;;;;;;;5030012;28;20076;-44
2021/05/10 06:16:00;;;;;;;1.50;1.40;;;;;;;;;;5031813;28;20095;-48
2021/05/10 06:18:28;;;;;;;1.95;1.85;;;;;;;;;;5028603;28;20124;-46
2021/05/10 06:21:02;;;;;;;4.45;1.52;;;;;;;;;;5027907;28;20044;-48
2021/05/10 06:23:29;;;;;;;2.92;1.85;;;;;;;;;;5027351;28;20060;-45
2021/05/10 06:25:57;;;;;;;1.45;1.42;;;;;;;;;;5018106;28;20061;-43
2021/05/10 06:28:24;;;;;;;1.27;1.27;;;;;;;;;;5025310;28;20654;-45
2021/05/10 06:30:51;;;;;;;1.60;1.40;;;;;;;;;;5020824;28;20048;-44
2021/05/10 06:33:17;;;;;;;2.97;1.20;;;;;;;;;;5023309;28;20030;-46
2021/05/10 06:35:44;;;;;;;4.57;1.60;;;;;;;;;;5027324;28;20543;-46
2021/05/10 06:38:14;;;;;;;3.72;1.30;;;;;;;;;;5029316;28;20045;-47
2021/05/10 06:40:41;;;;;;;1.48;1.30;;;;;;;;;;5022612;28;20046;-46
2021/05/10 06:43:08;;;;;;;1.38;1.35;;;;;;;;;;5018366;28;20095;-44
2021/05/10 06:45:35;;;;;;;1.10;1.10;;;;;;;;;;5023555;28;20519;-45
2021/05/10 06:48:03;;;;;;;4.57;1.40;;;;;;;;;;5023657;28;20076;-45
2021/05/10 06:50:30;;;;;;;7.47;2.55;;;;;;;;;;5028251;28;20324;-46
2021/05/10 06:52:57;;;;;;;1.25;1.25;;;;;;;;;;5026127;28;20439;-45
2021/05/10 06:55:24;;;;;;;1.70;1.60;;;;;;;;;;5016060;28;20069;-46
2021/05/10 06:57:50;;;;;;;8.55;1.88;;;;;;;;;;5029953;28;20293;-46
2021/05/10 07:00:17;;;;;;;1.40;1.30;;;;;;;;;;5026982;28;20064;-44
2021/05/10 07:02:44;;;;;;;1.65;1.55;;;;;;;;;;5025832;28;20080;-47
2021/05/10 07:05:14;;;;;;;5.90;1.60;;;;;;;;;;5027812;28;20418;-45
2021/05/10 07:07:41;;;;;;;4.53;1.10;;;;;;;;;;5027305;28;20421;-45
2021/05/10 07:10:08;;;;;;;1.48;1.35;;;;;;;;;;5028950;28;20099;-44
2021/05/10 07:12:34;;;;;;;2.08;1.20;;;;;;;;;;5028286;28;20050;-46
2021/05/10 07:15:01;;;;;;;1.55;1.20;;;;;;;;;;5027547;28;20041;-45
2021/05/10 07:17:28;;;;;;;1.05;1.00;;;;;;;;;;5025373;28;20038;-45
2021/05/10 07:19:54;;;;;;;1.10;1.00;;;;;;;;;;5021089;28;20049;-48
2021/05/10 07:22:21;;;;;;;1.38;1.02;;;;;;;;;;5028348;28;20099;-45
2021/05/10 07:24:48;;;;;;;1.45;1.00;;;;;;;;;;5027163;28;20046;-47
2021/05/10 07:27:14;;;;;;;4.32;1.10;;;;;;;;;;5028592;28;20545;-48
2021/05/10 07:29:41;;;;;;;3.08;1.00;;;;;;;;;;5026570;28;20056;-46
2021/05/10 07:32:08;;;;;;;1.33;1.33;;;;;;;;;;5019301;28;20120;-45
2021/05/10 07:34:36;;;;;;;4.72;1.40;;;;;;;;;;5025003;28;20042;-47
2021/05/10 07:37:03;;;;;;;1.77;1.20;;;;;;;;;;5015540;28;20124;-44
2021/05/10 07:39:30;;;;;;;1.30;1.00;;;;;;;;;;5028174;28;20042;-46
2021/05/10 07:41:57;;;;;;;2.03;1.10;;;;;;;;;;5020588;28;20485;-45
2021/05/10 07:44:24;;;;;;;2.40;0.80;;;;;;;;;;5027731;28;20052;-47
2021/05/10 07:46:52;;;;;;;1.38;1.33;;;;;;;;;;5025922;28;20072;-47
2021/05/10 07:49:19;;;;;;;1.40;0.80;;;;;;;;;;5014190;28;20045;-45
2021/05/10 07:51:45;;;;;;;0.90;0.90;;;;;;;;;;5029301;28;20478;-47
2021/05/10 07:54:12;;;;;;;0.88;0.80;;;;;;;;;;5026775;28;20494;-44
2021/05/10 07:56:38;;;;;;;0.70;0.70;;;;;;;;;;5032402;28;20041;-48
2021/05/10 07:59:09;;;;;;;3.65;0.90;;;;;;;;;;5028191;28;20411;-51
2021/05/10 08:01:37;;;;;;;4.63;0.80;;;;;;;;;;5019499;28;20030;-48
2021/05/10 08:04:04;;;;;;;2.50;0.77;;;;;;;;;;5031725;28;20072;-46
2021/05/10 08:06:32;;;;;;;0.70;0.70;;;;;;;;;;5029999;28;20102;-51
2021/05/10 08:08:59;;;;;;;0.70;0.70;;;;;;;;;;5032558;28;20120;-47
2021/05/10 08:11:25;;;;;;;1.65;0.70;;;;;;;;;;5029798;28;20033;-47
2021/05/10 08:13:58;;;;;;;3.58;0.70;;;;;;;;;;5015126;28;20080;-47
2021/05/10 08:16:26;;;;;;;0.70;0.70;;;;;;;;;;5032691;28;20128;-48
2021/05/10 08:18:53;;;;;;;3.72;0.75;;;;;;;;;;5030092;28;20393;-49
2021/05/10 08:21:20;;;;;;;2.38;0.60;;;;;;;;;;5032740;28;20041;-47
2021/05/10 08:23:47;;;;;;;0.70;0.70;;;;;;;;;;5030636;28;20088;-47
2021/05/10 08:26:15;;;;;;;0.82;0.70;;;;;;;;;;5025642;28;20034;-46
2021/05/10 08:28:43;;;;;;;0.80;0.70;;;;;;;;;;5028350;28;20468;-48
2021/05/10 08:31:09;;;;;;;0.60;0.60;;;;;;;;;;5018213;28;20043;-45
2021/05/10 08:33:36;;;;;;;0.60;0.60;;;;;;;;;;5031760;28;20048;-47
2021/05/10 08:36:03;;;;;;;1.75;0.70;;;;;;;;;;5028954;28;20029;-46
2021/05/10 08:38:29;;;;;;;0.73;0.73;;;;;;;;;;5016047;28;20065;-46
2021/05/10 08:40:56;;;;;;;1.10;0.60;;;;;;;;;;5027745;28;20044;-45
2021/05/10 08:43:24;;;;;;;0.77;0.60;;;;;;;;;;5026662;28;20036;-46
2021/05/10 08:45:55;;;;;;;0.60;0.60;;;;;;;;;;5031667;28;20405;-50
2021/05/10 08:48:22;;;;;;;0.60;0.60;;;;;;;;;;5026912;28;20061;-45
2021/05/10 08:50:50;;;;;;;0.70;0.60;;;;;;;;;;5031755;28;20041;-46
2021/05/10 08:53:32;;;;;;;1.83;0.60;;;;;;;;;;5027680;28;20060;-46
2021/05/10 08:55:59;;;;;;;0.60;0.60;;;;;;;;;;5020271;28;20044;-47
2021/05/10 08:58:28;;;;;;;0.95;0.60;;;;;;;;;;5030770;28;20033;-47
2021/05/10 09:00:58;;;;;;;1.13;0.77;;;;;;;;;;5030927;28;20033;-49
2021/05/10 09:03:31;;;;;;;0.60;0.60;;;;;;;;;;5031328;28;20572;-49
2021/05/10 09:06:01;;;;;;;1.23;0.80;;;;;;;;;;5027378;28;20480;-49
2021/05/10 09:08:36;;;;;;;0.60;0.60;;;;;;;;;;5023203;28;20068;-49
2021/05/10 09:11:13;;;;;;;4.45;0.60;;;;;;;;;;5021839;28;20482;-48
2021/05/10 09:13:43;;;;;;;0.60;0.60;;;;;;;;;;5022677;28;20049;-45
2021/05/10 09:16:10;;;;;;;2.25;0.60;;;;;;;;;;5030834;28;20037;-46
2021/05/10 09:18:38;;;;;;;1.15;0.60;;;;;;;;;;5029622;28;20042;-48
2021/05/10 09:21:15;;;;;;;0.70;0.60;;;;;;;;;;5029453;28;20037;-49
2021/05/10 09:24:19;;;;;;;1.58;0.60;;;;;;;;;;5020618;28;20049;-49
2021/05/10 09:27:25;;;;;;;0.60;0.60;;;;;;;;;;5031135;28;20030;-45
2021/05/10 09:30:11;;;;;;;1.23;0.60;;;;;;;;;;5029518;28;20460;-50
2021/05/10 09:32:45;;;;;;;0.73;0.60;;;;;;;;;;5031302;28;20120;-47
2021/05/10 09:35:16;;;;;;;0.50;0.50;;;;;;;;;;5028222;28;20485;-46
2021/05/10 09:37:43;;;;;;;1.67;0.60;;;;;;;;;;5026433;28;20049;-49
2021/05/10 09:40:11;;;;;;;0.60;0.60;;;;;;;;;;5028176;28;20700;-48
2021/05/10 09:42:51;;;;;;;0.73;0.60;;;;;;;;;;5027808;28;20041;-48
2021/05/10 09:45:47;;;;;;;0.60;0.60;;;;;;;;;;5031127;28;20486;-46
2021/05/10 09:48:16;;;;;;;0.57;0.57;;;;;;;;;;5033396;28;20053;-46
2021/05/10 09:50:45;;;;;;;1.30;0.50;;;;;;;;;;5018046;28;20069;-46
2021/05/10 09:53:15;;;;;;;3.25;0.65;;;;;;;;;;5017252;28;20671;-47
2021/05/10 09:55:48;;;;;;;2.40;0.60;;;;;;;;;;5025496;28;20038;-47
2021/05/10 09:58:15;;;;;;;0.70;0.60;;;;;;;;;;5030032;28;20033;-47
2021/05/10 10:00:42;;;;;;;0.60;0.60;;;;;;;;;;5029906;28;20049;-49
2021/05/10 10:03:23;;;;;;;0.70;0.70;;;;;;;;;;5021377;28;20060;-48
2021/05/10 10:05:53;;;;;;;2.60;0.60;;;;;;;;;;5029749;28;20417;-45
2021/05/10 10:08:20;;;;;;;1.33;0.70;;;;;;;;;;5027466;28;20056;-49
2021/05/10 10:10:47;;;;;;;0.90;0.60;;;;;;;;;;5029886;28;20033;-49
2021/05/10 10:13:15;;;;;;;0.60;0.60;;;;;;;;;;5029547;28;20113;-47
2021/05/10 10:15:43;;;;;;;0.60;0.60;;;;;;;;;;5028191;28;20489;-46
2021/05/10 10:18:10;;;;;;;1.95;0.60;;;;;;;;;;5025614;28;20383;-46
2021/05/10 10:20:38;;;;;;;3.13;0.60;;;;;;;;;;5025543;28;20048;-46
2021/05/10 10:23:06;;;;;;;1.30;0.60;;;;;;;;;;5027918;28;20120;-45
2021/05/10 10:25:36;;;;;;;1.85;0.60;;;;;;;;;;5028684;28;20064;-47
2021/05/10 10:28:20;;;;;;;2.65;0.60;;;;;;;;;;5024148;28;20041;-50
2021/05/10 10:31:07;;;;;;;0.50;0.50;;;;;;;;;;5020537;28;20124;-46
2021/05/10 10:33:53;;;;;;;1.35;0.50;;;;;;;;;;5024990;28;20132;-47
2021/05/10 10:36:27;;;;;;;3.88;0.55;;;;;;;;;;5020901;28;20052;-49
2021/05/10 10:39:12;;;;;;;0.60;0.60;;;;;;;;;;5029229;28;20075;-48
2021/05/10 10:41:59;;;;;;;0.50;0.50;;;;;;;;;;5025316;28;20132;-49
2021/05/10 10:44:25;;;;;;;1.10;0.50;;;;;;;;;;5026852;28;20058;-51
2021/05/10 10:46:53;;;;;;;0.50;0.50;;;;;;;;;;5029213;28;20378;-51
2021/05/10 10:49:36;;;;;;;0.50;0.50;;;;;;;;;;5029727;28;20076;-48
2021/05/10 10:52:03;;;;;;;0.50;0.50;;;;;;;;;;5029363;28;20045;-50
2021/05/10 10:54:31;;;;;;;0.88;0.50;;;;;;;;;;5027543;28;20037;-48
2021/05/10 10:57:00;;;;;;;4.60;0.65;;;;;;;;;;5021324;28;20375;-47
2021/05/10 10:59:27;;;;;;;1.30;0.52;;;;;;;;;;5028420;28;20140;-49
2021/05/10 11:01:55;;;;;;;2.92;0.60;;;;;;;;;;5027069;28;20034;-48
2021/05/10 11:04:28;;;;;;;0.60;0.60;;;;;;;;;;5029657;28;20440;-48
2021/05/10 11:06:57;;;;;;;0.60;0.60;;;;;;;;;;5025903;28;20367;-50
2021/05/10 11:09:45;;;;;;;0.60;0.60;;;;;;;;;;5027592;28;20401;-50
2021/05/10 11:12:33;;;;;;;0.95;0.50;;;;;;;;;;5020138;28;20045;-49
2021/05/10 11:15:01;;;;;;;0.50;0.50;;;;;;;;;;5022440;28;20057;-48
2021/05/10 11:17:46;;;;;;;0.65;0.50;;;;;;;;;;5029575;28;20532;-50
2021/05/10 11:20:14;;;;;;;2.78;0.50;;;;;;;;;;5017990;28;20056;-51
2021/05/10 11:22:40;;;;;;;0.55;0.55;;;;;;;;;;5023858;28;20041;-51
2021/05/10 11:25:26;;;;;;;1.30;0.50;;;;;;;;;;5020432;28;20041;-51
2021/05/10 11:27:53;;;;;;;2.13;0.50;;;;;;;;;;5026680;28;20440;-49
2021/05/10 11:30:40;;;;;;;1.73;0.50;;;;;;;;;;5026904;28;20037;-50
2021/05/10 11:33:09;;;;;;;0.55;0.50;;;;;;;;;;5028766;28;20055;-51
2021/05/10 11:35:37;;;;;;;0.47;0.47;;;;;;;;;;5027751;28;20091;-50
2021/05/10 11:38:07;;;;;;;5.88;0.50;;;;;;;;;;5026847;28;20038;-51
2021/05/10 11:40:33;;;;;;;4.78;0.50;;;;;;;;;;5029163;28;20052;-51
2021/05/10 11:43:15;;;;;;;0.50;0.50;;;;;;;;;;5024820;28;20052;-50
2021/05/10 11:45:43;;;;;;;0.50;0.50;;;;;;;;;;5011684;28;20614;-50
2021/05/10 11:48:09;;;;;;;1.17;0.50;;;;;;;;;;5022551;28;20462;-50
2021/05/10 11:50:46;;;;;;;0.80;0.40;;;;;;;;;;5026827;28;20060;-50
2021/05/10 11:53:15;;;;;;;0.40;0.40;;;;;;;;;;5024907;28;20048;-49
2021/05/10 11:55:55;;;;;;;0.75;0.50;;;;;;;;;;5023172;28;20683;-51
2021/05/10 11:58:42;;;;;;;1.33;0.60;;;;;;;;;;5025295;28;20034;-50
2021/05/10 12:01:08;;;;;;;1.55;0.52;;;;;;;;;;5016764;28;20037;-48
2021/05/10 12:03:35;;;;;;;0.65;0.50;;;;;;;;;;5025688;28;20056;-49
2021/05/10 12:06:22;;;;;;;1.13;0.50;;;;;;;;;;5026305;28;20037;-49
2021/05/10 12:08:48;;;;;;;2.05;0.50;;;;;;;;;;5027383;28;20052;-51
2021/05/10 12:11:21;;;;;;;1.52;0.50;;;;;;;;;;5027362;28;20046;-52
2021/05/10 12:13:48;;;;;;;0.50;0.50;;;;;;;;;;5015726;28;20034;-51
2021/05/10 12:16:16;;;;;;;1.40;0.50;;;;;;;;;;5025710;28;20091;-51
2021/05/10 12:18:55;;;;;;;0.90;0.50;;;;;;;;;;5026102;28;20041;-52
2021/05/10 12:21:23;;;;;;;1.23;0.50;;;;;;;;;;5028512;28;20042;-51
2021/05/10 12:23:49;;;;;;;0.50;0.50;;;;;;;;;;5021350;28;20470;-51
2021/05/10 12:26:16;;;;;;;0.50;0.50;;;;;;;;;;5017006;28;20127;-51
2021/05/10 12:28:43;;;;;;;4.57;0.50;;;;;;;;;;5028041;28;20033;-51
2021/05/10 12:31:10;;;;;;;0.73;0.52;;;;;;;;;;5025165;28;20119;-51
2021/05/10 12:33:36;;;;;;;0.50;0.50;;;;;;;;;;5029941;28;20037;-46
2021/05/10 12:36:03;;;;;;;0.50;0.50;;;;;;;;;;5023964;28;20041;-48
2021/05/10 12:38:32;;;;;;;0.50;0.50;;;;;;;;;;5012600;28;20621;-47
2021/05/10 12:40:58;;;;;;;0.47;0.47;;;;;;;;;;5024747;28;20074;-45
2021/05/10 12:43:25;;;;;;;0.43;0.43;;;;;;;;;;5035417;28;20056;-49
2021/05/10 12:45:57;;;;;;;0.50;0.50;;;;;;;;;;5034090;28;20041;-48
2021/05/10 12:48:24;;;;;;;;;;;;;;;;;;5036080;28;20049;-46
2021/05/10 12:50:54;;;;;;;1.95;0.50;;;;;;;;;;5029183;28;19962;-46
2021/05/10 12:53:32;;;;;;;0.50;0.50;;;;;;;;;;5031726;28;20121;-48
2021/05/10 12:55:59;;;;;;;1.30;0.50;;;;;;;;;;5022121;28;20076;-46
2021/05/10 12:58:25;;;;;;;0.50;0.50;;;;;;;;;;5031949;28;20064;-50
2021/05/10 13:00:52;;;;;;;0.50;0.50;;;;;;;;;;5029556;28;20045;-47
2021/05/10 13:03:25;;;;;;;0.57;0.50;;;;;;;;;;5031031;28;20034;-45
2021/05/10 13:05:52;;;;;;;0.50;0.50;;;;;;;;;;5032401;28;20050;-47
2021/05/10 13:08:35;;;;;;;0.65;0.50;;;;;;;;;;5025863;28;20041;-46
2021/05/10 13:11:01;;;;;;;3.72;0.50;;;;;;;;;;5031655;28;20042;-46
2021/05/10 13:13:37;;;;;;;1.27;0.47;;;;;;;;;;5029246;28;20045;-46
2021/05/10 13:16:28;;;;;;;0.40;0.40;;;;;;;;;;5030695;28;20045;-47
2021/05/10 13:19:18;;;;;;;2.28;0.40;;;;;;;;;;5030103;28;20453;-48
2021/05/10 13:32:56;;;;;;;0.50;0.50;;;;;;;;;;5028117;28;20565;-48
2021/05/10 13:35:58;;;;;;;1.38;0.40;;;;;;;;;;5017077;28;20045;-46
2021/05/10 13:38:25;;;;;;;1.35;0.50;;;;;;;;;;5018771;28;20056;-47
2021/05/10 13:40:52;;;;;;;1.85;0.40;;;;;;;;;;5023762;28;20083;-48
2021/05/10 13:43:36;;;;;;;0.75;0.50;;;;;;;;;;5031045;28;20045;-49
2021/05/10 13:46:05;;;;;;;4.78;0.50;;;;;;;;;;5021049;28;20068;-48
2021/05/10 13:48:32;;;;;;;2.05;0.50;;;;;;;;;;5020576;28;20532;-48
2021/05/10 13:50:58;;;;;;;0.63;0.63;;;;;;;;;;5032065;28;20110;-46
2021/05/10 13:53:25;;;;;;;1.55;0.40;;;;;;;;;;5027314;28;20036;-47
2021/05/10 13:55:51;;;;;;;1.30;0.40;;;;;;;;;;5032114;28;20099;-45
2021/05/10 13:58:17;;;;;;;1.73;0.40;;;;;;;;;;5028765;28;20041;-49
2021/05/10 14:00:43;;;;;;;0.52;0.40;;;;;;;;;;5028932;28;20689;-49
2021/05/10 14:03:10;;;;;;;0.50;0.43;;;;;;;;;;5035293;28;20037;-47
2021/05/10 14:05:36;;;;;;;3.28;0.50;;;;;;;;;;5030958;28;20033;-48
2021/05/10 14:08:03;;;;;;;0.77;0.40;;;;;;;;;;5029139;28;20478;-44
2021/05/10 14:10:29;;;;;;;0.40;0.40;;;;;;;;;;5030957;28;20056;-45
2021/05/10 14:12:56;;;;;;;0.40;0.40;;;;;;;;;;5028288;28;20052;-43
2021/05/10 14:15:22;;;;;;;0.50;0.50;;;;;;;;;;5029024;28;20128;-44
2021/05/10 14:17:49;;;;;;;1.33;0.40;;;;;;;;;;5023739;28;20478;-43
2021/05/10 14:20:18;;;;;;;0.50;0.50;;;;;;;;;;5020848;28;20505;-43
2021/05/10 14:22:45;;;;;;;3.20;0.50;;;;;;;;;;5029079;28;20049;-43
2021/05/10 14:25:11;;;;;;;0.98;0.57;;;;;;;;;;5024145;28;20053;-44
2021/05/10 14:27:38;;;;;;;1.05;0.50;;;;;;;;;;5016372;28;20057;-43
2021/05/10 14:30:04;;;;;;;0.50;0.50;;;;;;;;;;5028495;28;20044;-43
2021/05/10 14:32:31;;;;;;;1.85;0.50;;;;;;;;;;5027246;28;20080;-44
2021/05/10 14:34:57;;;;;;;1.65;0.45;;;;;;;;;;5030821;28;20037;-44
2021/05/10 14:37:23;;;;;;;0.63;0.63;;;;;;;;;;5026593;28;20045;-45
2021/05/10 14:39:50;;;;;;;0.60;0.50;;;;;;;;;;5020387;28;20223;-44
2021/05/10 14:42:19;;;;;;;1.02;0.50;;;;;;;;;;5025147;28;20062;-45
2021/05/10 14:44:45;;;;;;;1.27;0.50;;;;;;;;;;5019128;28;20389;-43
2021/05/10 14:47:12;;;;;;;0.50;0.50;;;;;;;;;;5030315;28;20125;-43
2021/05/10 14:49:38;;;;;;;0.50;0.50;;;;;;;;;;5026421;28;20056;-45
2021/05/10 14:52:05;;;;;;;0.80;0.50;;;;;;;;;;5027487;28;20042;-45
2021/05/10 14:54:31;;;;;;;5.25;0.50;;;;;;;;;;5029039;28;20460;-43
2021/05/10 14:56:57;;;;;;;0.73;0.50;;;;;;;;;;5019960;28;20033;-43
2021/05/10 14:59:23;;;;;;;0.50;0.50;;;;;;;;;;5016873;28;20540;-44
2021/05/10 15:01:50;;;;;;;0.50;0.50;;;;;;;;;;5024577;28;20029;-43
2021/05/10 15:04:16;;;;;;;0.55;0.50;;;;;;;;;;5029697;28;20807;-43
2021/05/10 15:06:43;;;;;;;0.98;0.50;;;;;;;;;;5029685;28;20040;-43
2021/05/10 15:09:10;;;;;;;1.75;0.45;;;;;;;;;;5023663;28;20038;-43
2021/05/10 15:11:36;;;;;;;2.38;0.50;;;;;;;;;;5023392;28;20029;-45
2021/05/10 15:14:03;;;;;;;1.30;0.47;;;;;;;;;;5026934;28;20057;-44
2021/05/10 15:16:30;;;;;;;0.65;0.40;;;;;;;;;;5028818;28;20128;-44